KBAD/BAD METAR and TAF weather

Enter ICAO airport designator
Station Type Date Time Source
KBAD METAR 2018/04/19 12:56 UTC NOAA

KBAD 191256Z AUTO 01006KT 10SM CLR 12/01 A3029 RMK AO2 SLP260 T01150014


Station Type Date Time Source
KBAD Decoded METAR 2018/04/19 12:56 UTC NOAA

Barksdale Air Force Base, LA, United States (KBAD) 32-30N 093-40W
Apr 19, 2018 - 08:56 AM EDT / 2018.04.19 1256 UTC
Wind: from the N (010 degrees) at 7 MPH (6 KT):0
Visibility: 10 mile(s):0
Sky conditions: clear
Temperature: 52.7 F (11.5 C)
Dew Point: 34.5 F (1.4 C)
Relative Humidity: 49%
Pressure (altimeter): 30.29 in. Hg (1025 hPa)
ob: KBAD 191256Z AUTO 01006KT 10SM CLR 12/01 A3029 RMK AO2 SLP260 T01150014
cycle: 13

Station Type Date Time Source
KBAD TAF 2018/04/19 10:09 UTC NOAA

TAF TAF KBAD 191000Z 1910/2016 36008KT 9999 SKC 510106 QNH3011INS
BECMG 1914/1915 01012G18KT 9999 SKC QNH3026INS
BECMG 1920/1921 36012KT 9999 SKC QNH3030INS
BECMG 2013/2014 06010G15KT 9999 FEW160 QNH3034INS TX21/1921Z TN10/1912Z


Example: see airport list